createdAt,value
2022-09-18T06:18:01.729Z,98798.56
2022-09-18T06:21:14.811Z,98802.69
2022-09-18T06:24:25.511Z,98799.91
2022-09-18T06:27:50.421Z,98802.47
2022-09-18T06:31:01.164Z,98808.28
2022-09-18T06:34:12.236Z,98807.94
2022-09-18T06:37:23.774Z,98807.59
2022-09-18T06:40:50.920Z,98797.53
2022-09-18T06:44:06.543Z,98800.75
2022-09-18T06:47:21.683Z,98807.34
2022-09-18T06:50:33.289Z,98799.06
2022-09-18T06:53:43.580Z,98805.56
2022-09-18T06:56:54.526Z,98794.34
2022-09-18T07:00:07.739Z,98800.34
2022-09-18T07:03:20.918Z,98799.72
2022-09-18T07:06:51.637Z,98791.81
2022-09-18T07:10:02.851Z,98788.88
2022-09-18T07:13:22.110Z,98795.78
2022-09-18T07:16:32.769Z,98804.03
2022-09-18T07:19:42.707Z,98810.56
2022-09-18T07:22:55.183Z,98811.88
2022-09-18T07:26:11.382Z,98797.25
2022-09-18T07:29:21.642Z,98802.34
2022-09-18T07:32:31.369Z,98797.63
2022-09-18T07:35:41.432Z,98798.66
2022-09-18T07:38:53.401Z,98802.81
2022-09-18T07:42:08.958Z,98808.38
2022-09-18T07:45:19.221Z,98807.69
2022-09-18T07:48:29.251Z,98795.78
2022-09-18T07:51:46.379Z,98793.50
2022-09-18T07:54:59.426Z,98790.72
2022-09-18T07:58:14.568Z,98796.06
2022-09-18T08:01:36.229Z,98797.69
2022-09-18T08:04:48.111Z,98798.06
2022-09-18T08:08:05.720Z,98802.66
2022-09-18T08:11:36.433Z,98810.81
2022-09-18T08:15:03.249Z,98805.84
2022-09-18T08:18:25.295Z,98806.25
2022-09-18T08:21:43.463Z,98808.59
2022-09-18T08:24:55.695Z,98811.53
2022-09-18T08:28:07.899Z,98810.66
2022-09-18T08:31:26.430Z,98812.53
2022-09-18T08:34:38.951Z,98795.19
2022-09-18T08:37:49.796Z,98803.31
2022-09-18T08:41:25.519Z,98802.78
2022-09-18T08:44:50.275Z,98806.00
2022-09-18T08:48:07.747Z,98800.59
2022-09-18T08:51:30.663Z,98804.22
2022-09-18T08:54:47.774Z,98803.59
2022-09-18T08:58:15.701Z,98801.03
2022-09-18T09:01:41.540Z,98802.84
2022-09-18T09:04:53.513Z,98803.63
2022-09-18T09:08:15.754Z,98794.41
2022-09-18T09:11:39.587Z,98800.50
2022-09-18T09:15:10.888Z,98794.34
2022-09-18T09:18:31.044Z,98803.34
2022-09-18T09:21:52.239Z,98806.09
2022-09-18T09:25:14.593Z,98809.56
2022-09-18T09:28:42.039Z,98803.72
2022-09-18T09:32:02.075Z,98805.47
2022-09-18T09:35:30.217Z,98793.47
2022-09-18T09:38:53.883Z,98810.34
2022-09-18T09:42:11.508Z,98793.63
2022-09-18T09:45:29.130Z,98794.88
2022-09-18T09:48:47.830Z,98787.25
2022-09-18T09:52:09.377Z,98800.53
2022-09-18T09:55:26.259Z,98792.28
2022-09-18T09:58:48.374Z,98797.28
2022-09-18T10:02:20.512Z,98795.53
2022-09-18T10:05:39.482Z,98792.38
2022-09-18T10:08:59.696Z,98792.25
2022-09-18T10:12:18.851Z,98783.50
2022-09-18T10:15:36.969Z,98785.94
2022-09-18T10:18:50.618Z,98772.72
2022-09-18T10:22:04.921Z,98764.81
2022-09-18T10:25:27.627Z,98769.09
2022-09-18T10:28:37.981Z,98765.97
2022-09-18T10:31:49.487Z,98761.53
2022-09-18T10:35:00.647Z,98765.97
2022-09-18T10:38:27.975Z,98770.03
2022-09-18T10:41:40.445Z,98766.25
2022-09-18T10:44:59.213Z,98767.22
2022-09-18T10:48:17.080Z,98765.72
2022-09-18T10:51:29.811Z,98761.41
2022-09-18T10:54:40.743Z,98758.78
2022-09-18T10:58:08.226Z,98765.22
2022-09-18T11:01:18.723Z,98760.94
2022-09-18T11:04:34.329Z,98752.75
2022-09-18T11:07:49.026Z,98760.34
2022-09-18T11:11:04.287Z,98752.94
2022-09-18T11:14:23.067Z,98757.16
2022-09-18T11:17:49.218Z,98768.94
2022-09-18T11:21:03.420Z,98744.41
2022-09-18T11:24:20.574Z,98749.53
2022-09-18T11:27:46.299Z,98735.84
2022-09-18T11:31:00.980Z,98738.59
2022-09-18T11:34:25.683Z,98741.13
2022-09-18T11:37:37.835Z,98729.44
2022-09-18T11:40:52.505Z,98719.41
2022-09-18T11:44:16.461Z,98726.63
2022-09-18T11:47:37.429Z,98721.91
2022-09-18T11:50:47.649Z,98721.59
2022-09-18T11:54:07.036Z,98726.78
2022-09-18T11:57:20.710Z,98728.22
2022-09-18T12:00:37.503Z,98732.38
2022-09-18T12:03:58.822Z,98741.22
2022-09-18T12:10:52.680Z,98738.47
2022-09-18T12:14:12.572Z,98726.00
2022-09-18T12:17:32.136Z,98728.56
2022-09-18T12:20:49.473Z,98720.59
2022-09-18T12:23:59.575Z,98710.91
2022-09-18T12:27:25.984Z,98712.28
2022-09-18T12:30:44.159Z,98703.84
2022-09-18T12:34:01.304Z,98707.56
2022-09-18T12:37:24.035Z,98711.41
2022-09-18T12:40:42.738Z,98701.06
2022-09-18T12:44:16.434Z,98699.84
2022-09-18T12:47:40.970Z,98696.16
2022-09-18T12:51:08.056Z,98691.25
2022-09-18T12:54:37.856Z,98678.31
2022-09-18T12:57:58.204Z,98680.09
2022-09-18T13:01:17.489Z,98673.84
2022-09-18T13:04:31.933Z,98683.81
2022-09-18T13:07:45.981Z,98680.84
2022-09-18T13:11:01.957Z,98671.22
2022-09-18T13:14:18.849Z,98675.78
2022-09-18T13:17:37.687Z,98674.91
2022-09-18T13:20:47.675Z,98656.31
2022-09-18T13:24:03.585Z,98662.88
2022-09-18T13:27:17.690Z,98660.00
2022-09-18T13:30:29.397Z,98664.00
2022-09-18T13:33:39.231Z,98650.91
2022-09-18T13:36:50.291Z,98646.03
2022-09-18T13:40:22.599Z,98647.47
2022-09-18T13:43:44.710Z,98636.25
2022-09-18T13:46:59.389Z,98642.94
2022-09-18T13:50:18.747Z,98635.72
2022-09-18T13:53:50.842Z,98639.84
2022-09-18T13:57:26.088Z,98623.56
2022-09-18T14:00:42.525Z,98623.91
2022-09-18T14:03:54.967Z,98629.50
2022-09-18T14:07:40.699Z,98631.28
2022-09-18T14:11:15.058Z,98637.25
2022-09-18T14:14:26.533Z,98613.63
2022-09-18T14:17:38.893Z,98615.00
2022-09-18T14:24:36.500Z,98613.38
2022-09-18T14:27:53.560Z,98623.75
2022-09-18T14:31:13.965Z,98615.00
2022-09-18T14:34:33.715Z,98609.31
2022-09-18T14:37:48.453Z,98614.88
2022-09-18T14:41:08.177Z,98617.94
2022-09-18T14:44:20.577Z,98616.84
2022-09-18T14:47:36.536Z,98610.66
2022-09-18T14:50:59.662Z,98612.28
2022-09-18T14:54:21.392Z,98612.81
2022-09-18T14:57:45.289Z,98609.63
2022-09-18T15:00:59.134Z,98604.88
2022-09-18T15:04:18.177Z,98601.41
2022-09-18T15:07:29.084Z,98605.13
2022-09-18T15:10:55.518Z,98601.03
2022-09-18T15:14:21.541Z,98598.75
2022-09-18T15:17:36.128Z,98602.13
2022-09-18T15:20:59.186Z,98600.34
2022-09-18T15:24:18.435Z,98596.97
2022-09-18T15:27:29.880Z,98590.53
2022-09-18T15:30:41.140Z,98586.09
2022-09-18T15:33:59.436Z,98600.53
2022-09-18T15:37:17.555Z,98596.78
2022-09-18T15:40:30.838Z,98590.81
2022-09-18T15:43:46.853Z,98588.06
2022-09-18T15:46:57.215Z,98588.34
2022-09-18T15:50:33.940Z,98595.97
2022-09-18T15:54:04.491Z,98591.06
2022-09-18T15:57:16.850Z,98590.34
2022-09-18T16:00:28.591Z,98592.56
2022-09-18T16:03:39.461Z,98591.44
2022-09-18T16:06:54.885Z,98582.53
2022-09-18T16:10:06.594Z,98582.53
2022-09-18T16:13:35.067Z,98582.16
2022-09-18T16:16:47.373Z,98583.91
2022-09-18T16:19:57.462Z,98575.03
2022-09-18T16:23:16.361Z,98573.97
2022-09-18T16:26:30.772Z,98578.75
2022-09-18T16:29:44.252Z,98575.44
2022-09-18T16:33:02.092Z,98566.94
2022-09-18T16:36:19.896Z,98571.09
2022-09-18T16:39:37.052Z,98559.38
2022-09-18T16:42:48.038Z,98560.78
2022-09-18T16:45:59.549Z,98562.94
2022-09-18T16:49:11.000Z,98555.81
2022-09-18T16:52:20.799Z,98558.81
2022-09-18T16:55:32.492Z,98563.09
2022-09-18T16:58:42.949Z,98557.38
2022-09-18T17:02:04.291Z,98559.25
2022-09-18T17:05:22.391Z,98563.53
2022-09-18T17:08:32.168Z,98558.19
2022-09-18T17:11:42.242Z,98561.72
2022-09-18T17:14:55.722Z,98562.66
2022-09-18T17:18:07.096Z,98564.66
2022-09-18T17:21:17.021Z,98561.69
2022-09-18T17:24:29.299Z,98567.50
2022-09-18T17:27:43.552Z,98563.25
2022-09-18T17:30:58.271Z,98554.53
2022-09-18T17:34:18.872Z,98560.56
2022-09-18T17:37:32.829Z,98560.94
2022-09-18T17:40:45.686Z,98564.69
2022-09-18T17:43:55.244Z,98560.66
2022-09-18T17:47:08.099Z,98559.69
2022-09-18T17:50:20.526Z,98549.78
2022-09-18T17:53:32.018Z,98551.25
2022-09-18T18:00:17.924Z,98559.41
2022-09-18T18:03:29.194Z,98559.03
2022-09-18T18:06:52.570Z,98562.38
2022-09-18T18:10:04.035Z,98570.91
2022-09-18T18:13:27.414Z,98571.22
2022-09-18T18:16:45.386Z,98574.50
2022-09-18T18:19:57.227Z,98573.09
2022-09-18T18:23:20.138Z,98579.63
2022-09-18T18:26:34.033Z,98579.22
2022-09-18T18:29:46.510Z,98563.31
2022-09-18T18:32:57.839Z,98574.69
2022-09-18T18:36:15.431Z,98567.75
2022-09-18T18:39:26.673Z,98570.31
2022-09-18T18:42:36.631Z,98568.63
2022-09-18T18:45:52.714Z,98567.16
2022-09-18T18:49:09.616Z,98567.34
2022-09-18T18:52:20.573Z,98568.75
2022-09-18T18:55:39.606Z,98567.75
2022-09-18T18:58:57.155Z,98585.78
2022-09-18T19:02:07.138Z,98589.91
2022-09-18T19:05:22.752Z,98585.06
2022-09-18T19:08:35.525Z,98590.34
2022-09-18T19:11:48.178Z,98585.69
2022-09-18T19:14:57.681Z,98586.38
2022-09-18T19:18:13.840Z,98588.34
2022-09-18T19:21:24.839Z,98593.31
2022-09-18T19:24:37.685Z,98585.69
2022-09-18T19:27:50.387Z,98595.69
2022-09-18T19:31:04.351Z,98597.75
2022-09-18T19:34:20.592Z,98599.44
2022-09-18T19:37:31.272Z,98603.13
2022-09-18T19:40:42.261Z,98611.72
2022-09-18T19:43:57.751Z,98608.75
2022-09-18T19:47:17.170Z,98615.47
2022-09-18T19:50:31.941Z,98618.06
2022-09-18T19:53:47.211Z,98627.19
2022-09-18T19:56:59.242Z,98630.81
2022-09-18T20:00:15.341Z,98641.09
